Latest Weather Observations for Beerburrum

IDQ60801

Issued at 6:32 pm EST Wednesday 22 February 2017 (issued every 30 minutes, with the page automatically refreshed every 10 minutes)

About weather observations | Map of weather stations | Latest weather observations for QLD | Other Formats
Station Details ID: 040284 Name: BEERBURRUM FOREST STATION Lat: -26.96 Lon: 152.96 Height: 48.0 m
Data from the previous 72 hours. | See also: Recent months at Beerburrum
Date/Time
EST
Temp
°C
App
Temp
°C
Dew
Point
°C
Rel
Hum
%
Delta-T
°C
Wind Press
QNH
hPa
Press
MSL
hPa
Rain since
9am
mm
Dir  Spd
km/h
Gust
km/h
Spd
kts
Gust
kts
22/06:30pm 24.8 25.9 16.5 60 5.1 ESE 6 15 3 8 - - 0.0
22/06:00pm 24.9 26.0 16.6 60 5.1 ESE 6 13 3 7 - - 0.0
22/05:30pm 25.3 26.1 16.4 57 5.5 SE 7 13 4 7 - - 0.0
22/05:00pm 25.6 26.0 16.2 56 5.8 S 9 19 5 10 - - 0.0
22/04:30pm 25.9 26.4 16.5 56 5.8 SE 9 19 5 10 - - 0.0
22/04:00pm 26.2 26.0 15.6 52 6.5 SE 11 24 6 13 - - 0.0
22/03:30pm 27.1 27.4 16.1 51 6.8 SSE 9 24 5 13 - - 0.0
22/03:00pm 26.4 27.3 16.6 55 6.1 S 7 17 4 9 - - 0.0
22/02:30pm 26.7 26.8 16.6 54 6.3 SSE 11 24 6 13 - - 0.0
22/02:00pm 27.0 26.9 16.0 51 6.8 S 11 22 6 12 - - 0.0
22/01:30pm 27.2 26.8 16.2 51 6.8 SSE 13 26 7 14 - - 0.0
22/01:00pm 27.7 28.1 16.3 49 7.1 SSE 9 24 5 13 - - 0.0
22/12:30pm 27.5 27.1 16.1 49 7.0 SE 13 24 7 13 - - 0.0
22/12:00pm 27.1 27.7 16.7 53 6.5 SE 9 19 5 10 - - 0.0
22/11:30am 26.9 28.0 17.9 57 5.7 SSE 9 22 5 12 - - 0.0
22/11:00am 26.9 27.0 17.4 56 6.0 SSE 13 22 7 12 - - 0.0
22/10:30am 26.6 27.9 18.5 61 5.2 SSE 9 20 5 11 - - 0.0
22/10:00am 27.1 28.5 18.7 60 5.4 S 9 15 5 8 - - 0.0
22/09:30am 25.5 26.7 18.2 64 4.6 S 9 20 5 11 - - 0.0
22/09:00am 26.5 28.4 18.9 63 4.9 S 7 15 4 8 - - 0.0
22/08:30am 25.4 27.1 18.6 66 4.3 S 7 15 4 8 - - 0.0
22/08:00am 25.0 26.4 17.7 64 4.6 S 7 17 4 9 - - 0.0
22/07:30am 23.6 25.1 18.0 71 3.5 SW 7 13 4 7 - - 0.0
22/07:00am 22.3 24.7 18.7 80 2.3 SSW 4 6 2 3 - - 0.0
22/06:30am 21.5 24.6 18.7 84 1.8 CALM 0 0 0 0 - - 0.0
22/06:00am 21.2 24.2 18.4 84 1.8 CALM 0 6 0 3 - - 0.0
22/05:30am 20.8 23.7 18.2 85 1.6 CALM 0 0 0 0 - - 0.0
22/05:00am 20.9 23.8 18.3 85 1.6 CALM 0 4 0 2 - - 0.0
22/04:30am 20.9 23.8 18.3 85 1.6 CALM 0 0 0 0 - - 0.0
22/04:00am 20.8 23.6 18.0 84 1.7 CALM 0 0 0 0 - - 0.0
22/03:30am 21.1 23.9 17.9 82 2.0 CALM 0 0 0 0 - - 0.0
22/03:00am 21.5 24.0 18.1 81 2.1 S 2 9 1 5 - - 0.0
22/02:30am 21.2 23.8 17.6 80 2.2 CALM 0 0 0 0 - - 0.0
22/02:00am 21.3 24.0 17.7 80 2.2 CALM 0 0 0 0 - - 0.0
22/01:30am 21.5 24.2 17.7 79 2.4 CALM 0 0 0 0 - - 0.0
22/01:00am 21.9 24.4 17.3 75 2.8 CALM 0 6 0 3 - - 0.0
22/12:30am 22.3 24.9 17.4 74 3.0 CALM 0 0 0 0 - - 0.0
22/12:00am 22.8 24.6 17.5 72 3.3 SSW 4 7 2 4 - - 0.0
 
Date/Time
EST
Temp
°C
App
Temp
°C
Dew
Point
°C
Rel
Hum
%
Delta-T
°C
Wind Press
QNH
hPa
Press
MSL
hPa
Rain since
9am
mm
Dir  Spd
km/h
Gust
km/h
Spd
kts
Gust
kts
21/11:30pm 23.5 25.8 17.7 70 3.6 SSE 2 9 1 5 - - 0.0
21/11:00pm 23.5 25.3 17.5 69 3.7 SSE 4 13 2 7 - - 0.0
21/10:30pm 23.2 25.0 17.4 70 3.6 S 4 7 2 4 - - 0.0
21/10:00pm 23.3 25.4 17.3 69 3.7 S 2 7 1 4 - - 0.0
21/09:30pm 23.4 25.7 17.8 71 3.5 E 2 7 1 4 - - 0.0
21/09:00pm 23.5 26.0 18.2 72 3.3 SE 2 6 1 3 - - 0.0
21/08:30pm 23.2 26.0 17.9 72 3.3 CALM 0 0 0 0 - - 0.0
21/08:00pm 23.7 26.2 17.2 67 4.0 CALM 0 6 0 3 - - 0.0
21/07:30pm 24.2 26.1 16.7 63 4.6 ESE 2 11 1 6 - - 0.0
21/07:00pm 25.0 26.5 17.5 63 4.7 SE 6 13 3 7 - - 0.0
21/06:30pm 25.6 27.1 18.0 63 4.8 SE 7 11 4 6 - - 0.0
21/06:00pm 26.2 27.7 18.1 61 5.1 SE 7 17 4 9 - - 0.0
21/05:30pm 26.7 28.3 18.3 60 5.3 SSE 7 15 4 8 - - 0.0
21/05:00pm 27.7 29.0 18.4 57 5.9 ESE 9 19 5 10 - - 0.0
21/04:30pm 27.9 29.5 18.3 56 6.1 SSE 7 17 4 9 - - 0.0
21/04:00pm 28.3 29.3 17.8 53 6.7 ESE 9 15 5 8 - - 0.0
21/03:30pm 29.2 30.2 17.7 50 7.3 SE 9 17 5 9 - - 0.0
21/03:00pm 29.5 29.9 16.3 45 8.2 ESE 9 17 5 9 - - 0.0
21/02:30pm 30.0 30.3 16.1 43 8.7 SE 9 17 5 9 - - 0.0
21/02:00pm 30.8 30.6 14.8 37 9.8 ESE 9 19 5 10 - - 0.0
21/01:30pm 30.4 30.6 15.7 41 9.1 ESE 9 15 5 8 - - 0.0
21/01:00pm 29.9 30.5 16.7 45 8.3 ESE 9 19 5 10 - - 0.0
21/12:30pm 29.7 30.3 16.8 45 8.1 ESE 9 17 5 9 - - 0.0
21/12:00pm 30.4 31.9 18.8 50 7.5 S 9 17 5 9 - - 0.0
21/11:30am 30.0 31.1 18.1 49 7.6 ESE 9 17 5 9 - - 0.0
21/11:00am 29.5 30.5 17.7 49 7.5 S 9 17 5 9 - - 0.0
21/10:30am 29.5 30.5 17.7 49 7.5 SSE 9 17 5 9 - - 0.0
21/10:00am 28.2 29.7 18.0 54 6.5 SSW 7 15 4 8 - - 0.0
21/09:30am 27.2 28.7 19.0 61 5.3 SE 9 15 5 8 - - 0.0
21/09:00am 27.6 29.9 19.9 63 5.0 S 7 17 4 9 - - 0.0
21/08:30am 26.6 29.2 20.4 69 4.1 S 7 13 4 7 - - 0.0
21/08:00am 25.4 28.1 20.6 75 3.1 S 7 13 4 7 - - 0.0
21/07:30am 24.3 27.3 20.8 81 2.3 SW 6 11 3 6 - - 0.0
21/07:00am 23.0 27.3 21.1 89 1.2 CALM 0 0 0 0 - - 0.0
21/06:30am 21.0 23.9 19.8 93 0.8 WSW 4 7 2 4 - - 0.0
21/06:00am 20.2 23.4 18.9 92 0.8 CALM 0 0 0 0 - - 0.0
21/05:30am 20.1 23.3 18.8 92 0.8 CALM 0 6 0 3 - - 0.0
21/05:00am 20.0 23.1 18.7 92 0.8 CALM 0 0 0 0 - - 0.0
21/04:30am 20.0 23.1 18.7 92 0.8 CALM 0 0 0 0 - - 0.0
21/04:00am 20.1 23.2 18.6 91 0.9 CALM 0 0 0 0 - - 0.0
21/03:30am 20.1 23.2 18.6 91 0.9 CALM 0 0 0 0 - - 0.0
21/03:00am 20.4 22.9 19.1 92 0.8 SW 4 6 2 3 - - 0.0
21/02:30am 20.3 23.1 18.8 91 0.9 SSW 2 6 1 3 - - 0.0
21/02:00am 20.4 23.6 18.9 91 0.9 CALM 0 0 0 0 - - 0.0
21/01:30am 20.6 23.4 18.9 90 1.1 SW 2 6 1 3 - - 0.0
21/01:00am 20.9 23.6 19.4 91 1.0 SSW 4 7 2 4 - - 0.0
21/12:30am 20.8 24.2 19.3 91 1.0 CALM 0 0 0 0 - - 0.0
21/12:00am 21.1 24.5 19.4 90 1.1 CALM 0 0 0 0 - - 0.0
 
Date/Time
EST
Temp
°C
App
Temp
°C
Dew
Point
°C
Rel
Hum
%
Delta-T
°C
Wind Press
QNH
hPa
Press
MSL
hPa
Rain since
9am
mm
Dir  Spd
km/h
Gust
km/h
Spd
kts
Gust
kts
20/11:30pm 21.3 24.8 19.6 90 1.1 CALM 0 0 0 0 - - 0.0
20/11:00pm 21.5 25.0 19.6 89 1.2 CALM 0 0 0 0 - - 0.0
20/10:30pm 21.9 25.5 19.8 88 1.3 CALM 0 0 0 0 - - 0.0
20/10:00pm 22.3 26.0 20.0 87 1.5 CALM 0 0 0 0 - - 0.0
20/09:30pm 22.6 26.4 20.1 86 1.6 CALM 0 0 0 0 - - 0.0
20/09:00pm 23.0 26.9 20.3 85 1.7 CALM 0 0 0 0 - - 0.0
20/08:30pm 23.1 26.9 20.2 84 1.9 CALM 0 0 0 0 - - 0.0
20/08:00pm 23.3 27.1 20.1 82 2.1 CALM 0 0 0 0 - - 0.0
20/07:30pm 23.5 27.0 19.6 79 2.5 CALM 0 0 0 0 - - 0.0
20/07:00pm 24.2 27.6 19.3 74 3.1 CALM 0 0 0 0 - - 0.0
20/06:30pm 25.4 27.6 19.1 68 4.0 E 6 7 3 4 - - 0.0
20/06:00pm 26.5 28.8 18.6 62 5.0 ESE 4 9 2 5 - - 0.0
20/05:30pm 27.8 29.7 18.5 57 6.0 SE 6 11 3 6 - - 0.0
20/05:00pm 28.8 30.4 18.3 53 6.7 SE 7 17 4 9 - - 0.0
20/04:30pm 29.6 30.3 17.1 47 7.9 ESE 9 19 5 10 - - 0.0
20/04:00pm 29.7 30.2 16.5 45 8.3 SE 9 19 5 10 - - 0.0
20/03:30pm 30.4 31.1 16.0 41 9.0 ESE 7 13 4 7 - - 0.0
20/03:00pm 30.7 32.1 17.4 45 8.5 S 6 11 3 6 - - 0.0
20/02:30pm 30.7 31.5 17.4 45 8.5 SSE 9 13 5 7 - - 0.0
20/02:00pm 30.5 31.0 16.5 43 8.8 ESE 9 17 5 9 - - 0.0
20/01:30pm 29.6 30.0 15.3 41 8.8 SE 7 17 4 9 - - 0.0
20/01:00pm 30.1 31.7 18.2 49 7.6 S 7 13 4 7 - - 0.0
20/12:30pm 30.7 31.5 15.9 40 9.2 SSW 6 19 3 10 - - 0.0
20/12:00pm 29.3 29.5 14.7 41 8.9 S 7 13 4 7 - - 0.0
20/11:30am 28.9 29.7 15.8 45 8.1 S 6 9 3 5 - - 0.0
20/11:00am 28.7 30.3 17.9 52 6.9 S 6 13 3 7 - - 0.0
20/10:30am 27.7 29.5 18.7 58 5.8 SSW 7 11 4 6 - - 0.0
20/10:00am 27.1 28.9 18.4 59 5.6 SW 6 11 3 6 - - 0.0
20/09:30am 25.7 28.0 18.6 65 4.5 SSW 4 7 2 4 - - 0.0
20/09:00am 25.2 27.3 18.2 65 4.4 WSW 4 7 2 4 - - 31.6
20/08:30am 24.9 27.4 19.9 74 3.2 W 6 9 3 5 - - 31.6
20/08:00am 23.7 27.1 19.4 77 2.8 CALM 0 0 0 0 - - 31.6
20/07:30am 23.2 26.9 20.0 82 2.1 CALM 0 0 0 0 - - 31.6
20/07:00am 22.3 26.3 20.6 90 1.1 CALM 0 0 0 0 - - 31.6
20/06:30am 21.3 25.0 19.9 92 0.9 CALM 0 0 0 0 - - 31.6
20/06:00am 20.7 24.1 19.4 92 0.8 CALM 0 0 0 0 - - 31.6
20/05:30am 20.6 23.5 19.1 91 0.9 SW 2 6 1 3 - - 31.6
20/05:00am 21.0 24.5 19.5 91 1.0 CALM 0 0 0 0 - - 31.6
20/04:30am 21.2 24.6 19.3 89 1.2 CALM 0 0 0 0 - - 31.6
20/04:00am 21.6 24.7 19.5 88 1.3 ENE 2 6 1 3 - - 31.6
20/03:30am 22.0 25.4 19.4 85 1.7 CALM 0 0 0 0 - - 31.6
20/03:00am 22.5 24.5 19.1 81 2.2 W 7 13 4 7 - - 31.6
20/02:30am 22.1 25.7 19.8 87 1.5 CALM 0 9 0 5 - - 31.6
20/02:00am 22.2 24.5 19.9 87 1.5 WNW 7 13 4 7 - - 31.6
20/01:30am 21.9 25.3 20.2 90 1.1 WNW 2 9 1 5 - - 31.6
20/01:00am 22.3 25.6 20.8 91 1.0 WSW 4 6 2 3 - - 31.6
20/12:30am 22.4 26.6 21.0 92 0.9 CALM 0 0 0 0 - - 31.6
20/12:00am 22.4 26.2 21.0 92 0.9 N 2 7 1 4 - - 31.6
 
Date/Time
EST
Temp
°C
App
Temp
°C
Dew
Point
°C
Rel
Hum
%
Delta-T
°C
Wind Press
QNH
hPa
Press
MSL
hPa
Rain since
9am
mm
Dir  Spd
km/h
Gust
km/h
Spd
kts
Gust
kts
19/11:30pm 22.4 26.6 20.9 91 1.0 CALM 0 0 0 0 - - 31.6
19/11:00pm 22.3 26.5 20.9 92 0.9 CALM 0 0 0 0 - - 31.6
19/10:30pm 22.4 26.2 21.0 92 0.9 S 2 6 1 3 - - 31.6
19/10:00pm 22.5 25.4 21.1 92 0.9 WSW 7 11 4 6 - - 31.2
19/09:30pm 22.6 26.5 21.2 92 0.9 W 2 7 1 4 - - 31.2
19/09:00pm 22.7 26.3 21.2 91 1.0 ENE 4 7 2 4 - - 31.2
19/08:30pm 22.9 27.3 21.4 91 1.0 CALM 0 4 0 2 - - 30.8
19/08:00pm 22.9 27.3 21.4 91 1.0 CALM 0 0 0 0 - - 30.0
19/07:30pm 22.8 26.8 21.4 92 0.9 S 2 6 1 3 - - 29.8
19/07:00pm 22.8 26.0 21.3 91 1.0 SW 6 15 3 8 - - 29.8

Other Formats:

Comma delimited format used in spreadsheet applications
http://www.bom.gov.au/fwo/IDQ60801/IDQ60801.95566.axf

JavaScript Object Notation format (JSON) in row-major order
http://www.bom.gov.au/fwo/IDQ60801/IDQ60801.95566.json